Flight Track Log - Related Links

Times and Time Zones

All times are in EDT time to prevent confusion due to time zone crossing. See the UAL4678 flight status page for this flight to view local times or setup timezone preferences in your user account.

Time Position Orientation Groundspeed Altitude Reporting Facility
EDT Latitude Longitude Course Direction KTS MPH feet Rate Location/Type
Sat 12:40:50 PM 29.9683 -95.3475 115° Southeast 162 186 500  Level Houston Center
Sat 12:41:45 PM 29.9492 -95.2992 115° Southeast 210 242 2,500 1,923 Climbing Houston Center
Sat 12:42:08 PM 29.9472 -95.2825 98° East 216 249 3,000 2,032 Climbing Houston Center
Sat 12:42:47 PM 29.9378 -95.2211 100° East 268 308 4,600 2,262 Climbing Houston Center
Sat 12:43:09 PM 29.9375 -95.2006 91° East 245 282 5,300 3,148 Climbing Houston Center
Sat 12:43:48 PM 29.9317 -95.1325 96° East 279 321 7,800 3,000 Climbing Houston Center
Sat 12:44:11 PM 29.9306 -95.1097 93° East 275 316 8,400 2,459 Climbing Houston Center
Sat 12:44:49 PM 29.9225 -95.0347 97° East 312 359 10,300 2,226 Climbing Houston Center
Sat 12:45:13 PM 29.9219 -95.0089 91° East 311 358 10,700 1,395 Climbing Houston Center
Sat 12:46:15 PM 29.9119 -94.8919 96° East 359 413 12,300 1,951 Climbing Houston Center
Sat 12:47:16 PM 29.8992 -94.7453 96° East 379 436 14,700 2,195 Climbing Houston Center
Sat 12:48:18 PM 29.8889 -94.6203 95° East 389 448 16,800 1,887 Climbing Houston Center
Sat 12:49:20 PM 29.8769 -94.4931 96° East 398 458 18,600 1,839 Climbing Houston Center
Sat 12:50:22 PM 29.8667 -94.3653 95° East 401 461 20,600 1,951 Climbing Houston Center
Sat 12:51:23 PM 29.8819 -94.2347 82° East 413 475 22,600 2,000 Climbing Houston Center
Sat 12:52:25 PM 29.9064 -94.0869 79° East 414 476 24,700 1,887 Climbing Houston Center
Sat 12:53:27 PM 29.9286 -93.9578 79° East 413 475 26,500 1,645 Climbing Houston Center
Sat 12:54:29 PM 29.9494 -93.8281 79° East 413 475 28,100 1,548 Climbing Houston Center
Sat 12:55:31 PM 29.9708 -93.6964 79° East 420 483 29,700 1,463 Climbing Houston Center
Sat 12:56:32 PM 29.9919 -93.5650 79° East 422 486 31,100 1,366 Climbing Houston Center
Sat 12:57:34 PM 30.0133 -93.4292 80° East 432 497 32,500 919 Climbing Houston Center
Sat 12:58:36 PM 30.0400 -93.2603 80° East 449 517 33,000 242 Climbing Houston Center
Sat 12:59:38 PM 30.0639 -93.1111 79° East 471 542 33,000  Level Houston Center
Sat 01:00:40 PM 30.0889 -92.9575 79° East 485 558 33,000  Level Houston Center
Sat 01:01:41 PM 30.1122 -92.8042 80° East 488 562 33,000  Level Houston Center
Sat 01:02:43 PM 30.1361 -92.6497 80° East 489 563 33,000  Level Houston Center
Sat 01:03:45 PM 30.1644 -92.4639 80° East 491 565 33,000  Level Houston Center
Sat 01:04:47 PM 30.1886 -92.3103 80° East 490 564 33,000  Level Houston Center
Sat 01:05:49 PM 30.2125 -92.1558 80° East 489 563 33,000  Level Houston Center
Sat 01:06:51 PM 30.2356 -92.0022 80° East 488 562 33,000  Level Houston Center
Sat 01:07:52 PM 30.2586 -91.8483 80° East 488 562 33,000  Level Houston Center
Sat 01:08:54 PM 30.2814 -91.6897 81° East 486 559 33,000  Level Houston Center
Sat 01:09:56 PM 30.3039 -91.5358 80° East 487 560 33,000  Level Houston Center
Sat 01:10:58 PM 30.3275 -91.3808 80° East 489 563 33,000  Level Houston Center
Sat 01:12:00 PM 30.3536 -91.1967 81° East 486 559 33,000  Level Houston Center
Sat 01:13:01 PM 30.3767 -91.0428 80° East 486 559 33,000  Level Houston Center
Sat 01:14:03 PM 30.3992 -90.8881 80° East 486 559 33,000 -48 Level Houston Center
Sat 01:15:05 PM 30.4197 -90.7347 81° East 485 558 32,900 -726 Descending Houston Center
Sat 01:16:07 PM 30.4417 -90.5806 81° East 484 557 31,500 -1,415 Descending Houston Center
Sat 01:17:08 PM 30.4622 -90.4281 81° East 481 554 30,000 -1,415 Descending Houston Center
Sat 01:18:10 PM 30.4822 -90.2758 81° East 479 551 28,600 -1,548 Descending Houston Center
Sat 01:19:12 PM 30.5072 -90.0900 81° East 482 555 26,800 -1,597 Descending Houston Center
Sat 01:20:14 PM 30.5275 -89.9331 81° East 486 559 25,300 -1,463 Descending Houston Center
Sat 01:21:15 PM 30.5481 -89.7814 81° East 468 539 23,800 -1,463 Descending Houston Center
Sat 01:22:17 PM 30.5669 -89.6353 81° East 453 521 22,300 -1,452 Descending Houston Center
Sat 01:23:19 PM 30.5853 -89.4928 81° East 445 512 20,800 -1,463 Descending Houston Center
Sat 01:24:20 PM 30.6022 -89.3539 82° East 437 503 19,300 -1,463 Descending Houston Center
Sat 01:25:22 PM 30.6194 -89.2153 82° East 434 499 17,800 -1,694 Descending Houston Center
Sat 01:26:24 PM 30.6356 -89.0817 82° East 423 487 15,800 -2,177 Descending Houston Center
Sat 01:27:26 PM 30.6539 -88.9375 82° East 410 472 13,300 -2,371 Descending Houston Center
Sat 01:28:28 PM 30.6672 -88.8186 83° East 383 441 10,900 -1,756 Descending Houston Center
Sat 01:29:29 PM 30.6814 -88.7150 81° East 335 386 9,700 -1,463 Descending Houston Center
Sat 01:30:31 PM 30.6928 -88.6206 82° East 305 351 7,900 -1,935 Descending Houston Center
Sat 01:31:33 PM 30.7117 -88.5333 76° East 287 330 5,700 -2,081 Descending Houston Center
Sat 01:32:35 PM 30.7347 -88.4369 74° East 264 304 3,600 -1,694 Descending Houston Center
Sat 01:33:37 PM 30.7531 -88.3633 74° East 251 289 2,200 -927 Descending Houston Center
Sat 01:34:38 PM 30.7531 -88.3050 90° East 212 244 1,700 -683 Descending Houston Center
Sat 01:35:40 PM 30.7264 -88.2736 135° Southeast 164 189 800 -677 Descending Houston Center
Sat 01:36:42 PM 30.6958 -88.2472 143° Southeast 143 165 300 -484 Descending Houston Center
Sat 01:38:00 PM 30.6914 -88.2428 103° East  Level Estimated

Login

Don't have an account? Register now (free) for customized features, flight alerts, and more!